sensor_id;sensor_type;location;lat;lon;timestamp;pressure;altitude;pressure_sealevel;temperature;humidity
16777;BME280;8505;49.456;8.164;2024-03-08T00:00:13;99744.03;;;6.50;74.77
16777;BME280;8505;49.456;8.164;2024-03-08T00:02:43;99749.50;;;6.39;75.21
16777;BME280;8505;49.456;8.164;2024-03-08T00:05:12;99754.06;;;6.37;74.78
16777;BME280;8505;49.456;8.164;2024-03-08T00:07:42;99750.19;;;6.31;75.64
16777;BME280;8505;49.456;8.164;2024-03-08T00:10:11;99747.41;;;5.86;76.26
16777;BME280;8505;49.456;8.164;2024-03-08T00:12:42;99747.78;;;6.11;76.67
16777;BME280;8505;49.456;8.164;2024-03-08T00:15:10;99744.69;;;6.25;75.59
16777;BME280;8505;49.456;8.164;2024-03-08T00:17:41;99746.69;;;6.03;75.67
16777;BME280;8505;49.456;8.164;2024-03-08T00:20:10;99747.00;;;5.91;76.93
16777;BME280;8505;49.456;8.164;2024-03-08T00:22:38;99748.94;;;5.89;76.07
16777;BME280;8505;49.456;8.164;2024-03-08T00:25:07;99742.41;;;5.93;76.51
16777;BME280;8505;49.456;8.164;2024-03-08T00:27:36;99735.78;;;5.69;76.76
16777;BME280;8505;49.456;8.164;2024-03-08T00:30:06;99742.00;;;5.88;76.71
16777;BME280;8505;49.456;8.164;2024-03-08T00:32:34;99734.25;;;5.96;76.61
16777;BME280;8505;49.456;8.164;2024-03-08T00:35:03;99735.38;;;5.84;76.89
16777;BME280;8505;49.456;8.164;2024-03-08T00:37:34;99735.38;;;5.84;76.28
16777;BME280;8505;49.456;8.164;2024-03-08T00:40:02;99729.81;;;5.87;76.55
16777;BME280;8505;49.456;8.164;2024-03-08T00:42:32;99726.53;;;5.65;76.70
16777;BME280;8505;49.456;8.164;2024-03-08T00:45:00;99724.31;;;5.90;76.56
16777;BME280;8505;49.456;8.164;2024-03-08T00:47:29;99728.31;;;5.94;76.28
16777;BME280;8505;49.456;8.164;2024-03-08T00:49:57;99720.28;;;5.86;76.55
16777;BME280;8505;49.456;8.164;2024-03-08T00:52:25;99720.16;;;5.78;76.23
16777;BME280;8505;49.456;8.164;2024-03-08T00:54:52;99719.06;;;5.70;76.11
16777;BME280;8505;49.456;8.164;2024-03-08T00:57:21;99715.47;;;5.62;77.42
16777;BME280;8505;49.456;8.164;2024-03-08T00:59:50;99721.59;;;5.24;78.17
16777;BME280;8505;49.456;8.164;2024-03-08T01:02:19;99718.94;;;4.95;79.23
16777;BME280;8505;49.456;8.164;2024-03-08T01:04:47;99718.41;;;5.11;78.91
16777;BME280;8505;49.456;8.164;2024-03-08T01:07:15;99717.72;;;5.09;78.54
16777;BME280;8505;49.456;8.164;2024-03-08T01:09:42;99716.34;;;5.34;78.26
16777;BME280;8505;49.456;8.164;2024-03-08T01:12:10;99712.47;;;5.28;77.93
16777;BME280;8505;49.456;8.164;2024-03-08T01:14:38;99707.22;;;5.47;77.47
16777;BME280;8505;49.456;8.164;2024-03-08T01:17:07;99703.91;;;5.36;78.21
16777;BME280;8505;49.456;8.164;2024-03-08T01:19:35;99698.91;;;5.33;77.52
16777;BME280;8505;49.456;8.164;2024-03-08T01:22:03;99696.72;;;4.99;78.73
16777;BME280;8505;49.456;8.164;2024-03-08T01:24:31;99698.22;;;5.02;79.35
16777;BME280;8505;49.456;8.164;2024-03-08T01:26:59;99696.72;;;5.09;79.08
16777;BME280;8505;49.456;8.164;2024-03-08T01:29:27;99692.56;;;5.06;79.91
16777;BME280;8505;49.456;8.164;2024-03-08T01:31:56;99694.06;;;4.89;80.10
16777;BME280;8505;49.456;8.164;2024-03-08T01:34:25;99687.16;;;4.88;80.26
16777;BME280;8505;49.456;8.164;2024-03-08T01:36:54;99685.75;;;4.65;80.11
16777;BME280;8505;49.456;8.164;2024-03-08T01:39:22;99679.00;;;4.72;81.63
16777;BME280;8505;49.456;8.164;2024-03-08T01:41:51;99674.56;;;4.63;81.37
16777;BME280;8505;49.456;8.164;2024-03-08T01:44:19;99678.16;;;4.62;81.43
16777;BME280;8505;49.456;8.164;2024-03-08T01:46:47;99675.09;;;4.57;81.02
16777;BME280;8505;49.456;8.164;2024-03-08T01:49:18;99665.16;;;4.51;81.15
16777;BME280;8505;49.456;8.164;2024-03-08T01:51:49;99670.25;;;4.53;81.71
16777;BME280;8505;49.456;8.164;2024-03-08T01:54:18;99665.44;;;4.48;81.79
16777;BME280;8505;49.456;8.164;2024-03-08T01:56:47;99667.34;;;4.46;81.73
16777;BME280;8505;49.456;8.164;2024-03-08T01:59:15;99656.91;;;4.16;81.41
16777;BME280;8505;49.456;8.164;2024-03-08T02:01:43;99655.19;;;4.35;82.20
16777;BME280;8505;49.456;8.164;2024-03-08T02:04:11;99653.09;;;4.29;81.84
16777;BME280;8505;49.456;8.164;2024-03-08T02:06:39;99649.66;;;4.29;82.48
16777;BME280;8505;49.456;8.164;2024-03-08T02:09:08;99647.97;;;4.18;82.91
16777;BME280;8505;49.456;8.164;2024-03-08T02:11:36;99654.56;;;4.13;82.81
16777;BME280;8505;49.456;8.164;2024-03-08T02:14:04;99651.50;;;4.07;83.61
16777;BME280;8505;49.456;8.164;2024-03-08T02:16:33;99644.31;;;4.00;83.76
16777;BME280;8505;49.456;8.164;2024-03-08T02:19:01;99653.44;;;4.05;83.72
16777;BME280;8505;49.456;8.164;2024-03-08T02:21:30;99647.38;;;4.05;83.17
16777;BME280;8505;49.456;8.164;2024-03-08T02:23:58;99645.97;;;4.01;83.17
16777;BME280;8505;49.456;8.164;2024-03-08T02:26:26;99639.66;;;3.83;83.01
16777;BME280;8505;49.456;8.164;2024-03-08T02:28:54;99637.06;;;3.83;83.97
16777;BME280;8505;49.456;8.164;2024-03-08T02:31:22;99635.44;;;3.91;83.81
16777;BME280;8505;49.456;8.164;2024-03-08T02:33:49;99633.97;;;3.98;83.32
16777;BME280;8505;49.456;8.164;2024-03-08T02:36:17;99631.34;;;3.98;83.45
16777;BME280;8505;49.456;8.164;2024-03-08T02:38:47;99620.88;;;3.98;83.23
16777;BME280;8505;49.456;8.164;2024-03-08T02:41:14;99623.38;;;4.00;83.20
16777;BME280;8505;49.456;8.164;2024-03-08T02:43:42;99616.03;;;3.94;82.61
16777;BME280;8505;49.456;8.164;2024-03-08T02:46:11;99612.59;;;3.93;83.02
16777;BME280;8505;49.456;8.164;2024-03-08T02:48:39;99616.41;;;3.89;82.91
16777;BME280;8505;49.456;8.164;2024-03-08T02:51:07;99616.91;;;3.74;83.52
16777;BME280;8505;49.456;8.164;2024-03-08T02:53:37;99615.59;;;3.89;82.83
16777;BME280;8505;49.456;8.164;2024-03-08T02:56:06;99614.31;;;3.83;82.84
16777;BME280;8505;49.456;8.164;2024-03-08T02:58:37;99615.88;;;3.65;83.77
16777;BME280;8505;49.456;8.164;2024-03-08T03:01:05;99618.25;;;3.68;84.13
16777;BME280;8505;49.456;8.164;2024-03-08T03:03:32;99620.69;;;3.60;83.89
16777;BME280;8505;49.456;8.164;2024-03-08T03:06:00;99620.88;;;3.68;83.64
16777;BME280;8505;49.456;8.164;2024-03-08T03:08:28;99620.03;;;3.67;83.36
16777;BME280;8505;49.456;8.164;2024-03-08T03:10:56;99613.03;;;3.68;83.79
16777;BME280;8505;49.456;8.164;2024-03-08T03:13:25;99606.09;;;3.57;83.83
16777;BME280;8505;49.456;8.164;2024-03-08T03:15:52;99606.78;;;3.59;83.55
16777;BME280;8505;49.456;8.164;2024-03-08T03:18:20;99611.25;;;3.48;84.69
16777;BME280;8505;49.456;8.164;2024-03-08T03:20:50;99602.63;;;3.57;84.05
16777;BME280;8505;49.456;8.164;2024-03-08T03:23:18;99601.09;;;3.54;84.36
16777;BME280;8505;49.456;8.164;2024-03-08T03:25:47;99599.41;;;3.44;83.63
16777;BME280;8505;49.456;8.164;2024-03-08T03:28:15;99600.16;;;3.35;84.88
16777;BME280;8505;49.456;8.164;2024-03-08T03:30:46;99608.97;;;3.34;85.36
16777;BME280;8505;49.456;8.164;2024-03-08T03:33:14;99601.47;;;3.19;85.02
16777;BME280;8505;49.456;8.164;2024-03-08T03:35:43;99592.97;;;3.27;85.08
16777;BME280;8505;49.456;8.164;2024-03-08T03:38:11;99592.28;;;3.25;84.46
16777;BME280;8505;49.456;8.164;2024-03-08T03:40:41;99593.78;;;3.28;84.10
16777;BME280;8505;49.456;8.164;2024-03-08T03:43:09;99589.38;;;3.28;84.89
16777;BME280;8505;49.456;8.164;2024-03-08T03:45:39;99590.47;;;3.25;84.65
16777;BME280;8505;49.456;8.164;2024-03-08T03:48:10;99593.09;;;3.05;84.75
16777;BME280;8505;49.456;8.164;2024-03-08T03:50:38;99596.22;;;3.19;84.85
16777;BME280;8505;49.456;8.164;2024-03-08T03:53:07;99590.16;;;3.19;84.50
16777;BME280;8505;49.456;8.164;2024-03-08T03:55:37;99582.03;;;3.22;84.37
16777;BME280;8505;49.456;8.164;2024-03-08T03:58:07;99584.63;;;3.12;84.55
16777;BME280;8505;49.456;8.164;2024-03-08T04:00:36;99582.72;;;3.14;84.68
16777;BME280;8505;49.456;8.164;2024-03-08T04:03:04;99581.03;;;3.13;84.67
16777;BME280;8505;49.456;8.164;2024-03-08T04:05:34;99577.19;;;3.17;83.94
16777;BME280;8505;49.456;8.164;2024-03-08T04:08:02;99575.22;;;3.10;84.86
16777;BME280;8505;49.456;8.164;2024-03-08T04:10:30;99573.50;;;3.20;84.41
16777;BME280;8505;49.456;8.164;2024-03-08T04:12:58;99569.44;;;3.06;84.54
16777;BME280;8505;49.456;8.164;2024-03-08T04:15:25;99560.34;;;3.10;84.65
16777;BME280;8505;49.456;8.164;2024-03-08T04:17:53;99560.03;;;3.04;84.54
16777;BME280;8505;49.456;8.164;2024-03-08T04:20:21;99570.69;;;2.91;85.10
16777;BME280;8505;49.456;8.164;2024-03-08T04:22:50;99569.28;;;2.87;84.45
16777;BME280;8505;49.456;8.164;2024-03-08T04:25:18;99568.31;;;2.67;85.84
16777;BME280;8505;49.456;8.164;2024-03-08T04:27:46;99564.38;;;2.94;84.67
16777;BME280;8505;49.456;8.164;2024-03-08T04:30:16;99557.69;;;3.01;84.62
16777;BME280;8505;49.456;8.164;2024-03-08T04:32:44;99565.09;;;2.96;84.88
16777;BME280;8505;49.456;8.164;2024-03-08T04:35:12;99563.75;;;3.01;84.08
16777;BME280;8505;49.456;8.164;2024-03-08T04:37:41;99561.56;;;2.85;84.44
16777;BME280;8505;49.456;8.164;2024-03-08T04:40:10;99557.25;;;2.96;84.12
16777;BME280;8505;49.456;8.164;2024-03-08T04:42:39;99552.16;;;2.94;84.16
16777;BME280;8505;49.456;8.164;2024-03-08T04:45:09;99552.50;;;2.69;85.06
16777;BME280;8505;49.456;8.164;2024-03-08T04:47:38;99556.22;;;2.87;84.48
16777;BME280;8505;49.456;8.164;2024-03-08T04:50:07;99560.06;;;2.83;84.73
16777;BME280;8505;49.456;8.164;2024-03-08T04:52:36;99558.44;;;2.92;83.84
16777;BME280;8505;49.456;8.164;2024-03-08T04:55:05;99556.72;;;2.81;84.60
16777;BME280;8505;49.456;8.164;2024-03-08T04:57:34;99551.06;;;2.76;84.23
16777;BME280;8505;49.456;8.164;2024-03-08T05:00:02;99560.19;;;2.81;84.89
16777;BME280;8505;49.456;8.164;2024-03-08T05:02:37;99544.03;;;2.76;84.91
16777;BME280;8505;49.456;8.164;2024-03-08T05:05:06;99544.16;;;2.75;84.55
16777;BME280;8505;49.456;8.164;2024-03-08T05:07:33;99543.53;;;2.82;83.98
16777;BME280;8505;49.456;8.164;2024-03-08T05:10:01;99538.22;;;2.73;84.81
16777;BME280;8505;49.456;8.164;2024-03-08T05:12:29;99537.78;;;2.68;85.17
16777;BME280;8505;49.456;8.164;2024-03-08T05:14:59;99539.50;;;2.58;85.62
16777;BME280;8505;49.456;8.164;2024-03-08T05:17:27;99542.84;;;2.49;85.41
16777;BME280;8505;49.456;8.164;2024-03-08T05:19:54;99537.56;;;2.39;86.62
16777;BME280;8505;49.456;8.164;2024-03-08T05:22:22;99538.56;;;2.48;86.29
16777;BME280;8505;49.456;8.164;2024-03-08T05:24:50;99543.69;;;2.49;85.97
16777;BME280;8505;49.456;8.164;2024-03-08T05:27:18;99537.84;;;2.57;86.00
16777;BME280;8505;49.456;8.164;2024-03-08T05:29:46;99533.88;;;2.62;85.14
16777;BME280;8505;49.456;8.164;2024-03-08T05:32:15;99530.03;;;2.46;85.97
16777;BME280;8505;49.456;8.164;2024-03-08T05:34:43;99532.22;;;2.40;86.26
16777;BME280;8505;49.456;8.164;2024-03-08T05:37:11;99528.44;;;2.54;85.63
16777;BME280;8505;49.456;8.164;2024-03-08T05:39:39;99527.63;;;2.54;86.13
16777;BME280;8505;49.456;8.164;2024-03-08T05:42:08;99526.66;;;2.55;85.85
16777;BME280;8505;49.456;8.164;2024-03-08T05:44:36;99532.84;;;2.54;86.05
16777;BME280;8505;49.456;8.164;2024-03-08T05:47:04;99532.66;;;2.46;86.34
16777;BME280;8505;49.456;8.164;2024-03-08T05:49:34;99521.00;;;2.50;86.39
16777;BME280;8505;49.456;8.164;2024-03-08T05:52:02;99527.66;;;2.42;86.30
16777;BME280;8505;49.456;8.164;2024-03-08T05:54:31;99526.28;;;2.38;86.34
16777;BME280;8505;49.456;8.164;2024-03-08T05:56:59;99526.59;;;2.45;86.37
16777;BME280;8505;49.456;8.164;2024-03-08T05:59:27;99526.28;;;2.38;86.25
16777;BME280;8505;49.456;8.164;2024-03-08T06:01:55;99523.53;;;2.40;86.48
16777;BME280;8505;49.456;8.164;2024-03-08T06:04:23;99517.47;;;2.39;86.71
16777;BME280;8505;49.456;8.164;2024-03-08T06:06:52;99518.34;;;2.29;86.73
16777;BME280;8505;49.456;8.164;2024-03-08T06:09:22;99519.94;;;2.41;87.04
16777;BME280;8505;49.456;8.164;2024-03-08T06:11:51;99526.59;;;2.45;87.00
16777;BME280;8505;49.456;8.164;2024-03-08T06:14:21;99529.88;;;2.58;86.60
16777;BME280;8505;49.456;8.164;2024-03-08T06:16:49;99526.44;;;2.58;86.50
16777;BME280;8505;49.456;8.164;2024-03-08T06:19:17;99528.03;;;2.70;85.69
16777;BME280;8505;49.456;8.164;2024-03-08T06:21:45;99521.34;;;2.77;85.60
16777;BME280;8505;49.456;8.164;2024-03-08T06:24:14;99522.75;;;2.81;84.99
16777;BME280;8505;49.456;8.164;2024-03-08T06:26:42;99523.19;;;2.65;85.59
16777;BME280;8505;49.456;8.164;2024-03-08T06:29:10;99519.41;;;2.79;84.58
16777;BME280;8505;49.456;8.164;2024-03-08T06:31:39;99515.97;;;2.78;85.67
16777;BME280;8505;49.456;8.164;2024-03-08T06:34:07;99517.38;;;2.82;85.80
16777;BME280;8505;49.456;8.164;2024-03-08T06:36:35;99517.81;;;2.67;86.04
16777;BME280;8505;49.456;8.164;2024-03-08T06:39:04;99519.84;;;2.84;85.71
16777;BME280;8505;49.456;8.164;2024-03-08T06:41:38;99515.44;;;3.05;86.04
16777;BME280;8505;49.456;8.164;2024-03-08T06:44:06;99521.53;;;2.64;85.43
16777;BME280;8505;49.456;8.164;2024-03-08T06:46:35;99516.25;;;2.75;86.47
16777;BME280;8505;49.456;8.164;2024-03-08T06:49:02;99519.28;;;2.60;86.18
16777;BME280;8505;49.456;8.164;2024-03-08T06:51:30;99518.47;;;2.59;86.93
16777;BME280;8505;49.456;8.164;2024-03-08T06:53:58;99516.47;;;2.72;86.40
16777;BME280;8505;49.456;8.164;2024-03-08T06:56:26;99518.50;;;2.48;86.43
16777;BME280;8505;49.456;8.164;2024-03-08T06:58:55;99520.44;;;2.46;86.91
16777;BME280;8505;49.456;8.164;2024-03-08T07:01:23;99519.97;;;2.62;86.43
16777;BME280;8505;49.456;8.164;2024-03-08T07:03:51;99524.81;;;2.66;86.48
16777;BME280;8505;49.456;8.164;2024-03-08T07:06:19;99522.09;;;2.89;84.96
16777;BME280;8505;49.456;8.164;2024-03-08T07:08:47;99519.59;;;2.66;86.41
16777;BME280;8505;49.456;8.164;2024-03-08T07:11:15;99518.34;;;2.81;85.41
16777;BME280;8505;49.456;8.164;2024-03-08T07:13:45;99515.13;;;2.78;85.89
16777;BME280;8505;49.456;8.164;2024-03-08T07:16:14;99511.88;;;3.06;84.94
16777;BME280;8505;49.456;8.164;2024-03-08T07:18:42;99521.03;;;3.21;84.15
16777;BME280;8505;49.456;8.164;2024-03-08T07:21:10;99506.78;;;3.35;84.05
16777;BME280;8505;49.456;8.164;2024-03-08T07:23:39;99511.56;;;3.60;83.27
16777;BME280;8505;49.456;8.164;2024-03-08T07:26:30;99508.41;;;3.66;83.56
16777;BME280;8505;49.456;8.164;2024-03-08T07:28:58;99501.56;;;3.75;81.95
16777;BME280;8505;49.456;8.164;2024-03-08T07:31:28;99501.31;;;3.88;82.04
16777;BME280;8505;49.456;8.164;2024-03-08T07:34:11;99504.78;;;4.07;82.03
16777;BME280;8505;49.456;8.164;2024-03-08T07:36:39;99499.28;;;4.11;80.78
16777;BME280;8505;49.456;8.164;2024-03-08T07:39:06;99496.53;;;4.51;79.92
16777;BME280;8505;49.456;8.164;2024-03-08T07:41:38;99502.47;;;4.62;78.29
16777;BME280;8505;49.456;8.164;2024-03-08T07:44:07;99502.88;;;4.48;78.80
16777;BME280;8505;49.456;8.164;2024-03-08T07:46:36;99489.50;;;4.61;79.94
16777;BME280;8505;49.456;8.164;2024-03-08T07:49:04;99494.28;;;4.84;78.40
16777;BME280;8505;49.456;8.164;2024-03-08T07:51:37;99480.16;;;5.05;77.69
16777;BME280;8505;49.456;8.164;2024-03-08T07:54:04;99492.84;;;5.09;77.03
16777;BME280;8505;49.456;8.164;2024-03-08T07:56:32;99479.53;;;5.30;76.81
16777;BME280;8505;49.456;8.164;2024-03-08T07:59:01;99481.78;;;5.52;76.27
16777;BME280;8505;49.456;8.164;2024-03-08T08:01:30;99472.63;;;5.56;75.12
16777;BME280;8505;49.456;8.164;2024-03-08T08:04:01;99465.09;;;6.16;73.12
16777;BME280;8505;49.456;8.164;2024-03-08T08:06:29;99477.66;;;6.22;72.59
16777;BME280;8505;49.456;8.164;2024-03-08T08:08:58;99474.25;;;6.12;72.61
16777;BME280;8505;49.456;8.164;2024-03-08T08:11:26;99472.44;;;6.13;71.56
16777;BME280;8505;49.456;8.164;2024-03-08T08:13:55;99472.91;;;5.81;72.85
16777;BME280;8505;49.456;8.164;2024-03-08T08:16:23;99475.47;;;5.63;73.96
16777;BME280;8505;49.456;8.164;2024-03-08T08:18:52;99469.97;;;5.66;73.47
16777;BME280;8505;49.456;8.164;2024-03-08T08:21:22;99465.47;;;5.76;74.07
16777;BME280;8505;49.456;8.164;2024-03-08T08:23:51;99462.97;;;6.02;72.26
16777;BME280;8505;49.456;8.164;2024-03-08T08:26:19;99457.63;;;6.12;73.30
16777;BME280;8505;49.456;8.164;2024-03-08T08:28:47;99462.63;;;6.15;72.79
16777;BME280;8505;49.456;8.164;2024-03-08T08:31:15;99454.88;;;5.95;72.61
16777;BME280;8505;49.456;8.164;2024-03-08T08:33:43;99455.69;;;5.96;72.82
16777;BME280;8505;49.456;8.164;2024-03-08T08:36:13;99458.41;;;6.04;73.06
16777;BME280;8505;49.456;8.164;2024-03-08T08:38:42;99457.03;;;6.00;72.45
16777;BME280;8505;49.456;8.164;2024-03-08T08:41:12;99450.44;;;5.96;72.41
16777;BME280;8505;49.456;8.164;2024-03-08T08:43:40;99441.81;;;6.03;72.47
16777;BME280;8505;49.456;8.164;2024-03-08T08:46:24;99439.84;;;6.05;72.14
16777;BME280;8505;49.456;8.164;2024-03-08T08:48:52;99432.03;;;5.96;72.00
16777;BME280;8505;49.456;8.164;2024-03-08T08:51:20;99436.09;;;5.90;71.89
16777;BME280;8505;49.456;8.164;2024-03-08T08:53:51;99428.91;;;5.83;71.82
16777;BME280;8505;49.456;8.164;2024-03-08T08:56:18;99432.50;;;5.91;71.85
16777;BME280;8505;49.456;8.164;2024-03-08T08:58:46;99430.75;;;6.00;72.47
16777;BME280;8505;49.456;8.164;2024-03-08T09:01:14;99430.25;;;5.87;73.02
16777;BME280;8505;49.456;8.164;2024-03-08T09:03:45;99428.72;;;5.94;72.69
16777;BME280;8505;49.456;8.164;2024-03-08T09:06:13;99428.34;;;5.89;72.58
16777;BME280;8505;49.456;8.164;2024-03-08T09:08:41;99426.59;;;5.80;72.34
16777;BME280;8505;49.456;8.164;2024-03-08T09:11:11;99425.72;;;6.06;72.31
16777;BME280;8505;49.456;8.164;2024-03-08T09:13:39;99427.59;;;6.14;71.60
16777;BME280;8505;49.456;8.164;2024-03-08T09:16:07;99421.53;;;5.96;71.57
16777;BME280;8505;49.456;8.164;2024-03-08T09:18:37;99424.06;;;6.05;72.31
16777;BME280;8505;49.456;8.164;2024-03-08T09:21:04;99416.88;;;6.07;71.55
16777;BME280;8505;49.456;8.164;2024-03-08T09:23:36;99415.50;;;5.86;72.60
16777;BME280;8505;49.456;8.164;2024-03-08T09:26:04;99400.28;;;5.62;73.13
16777;BME280;8505;49.456;8.164;2024-03-08T09:28:42;99405.72;;;5.78;73.39
16777;BME280;8505;49.456;8.164;2024-03-08T09:31:10;99403.72;;;5.90;72.61
16777;BME280;8505;49.456;8.164;2024-03-08T09:33:38;99396.06;;;5.96;72.34
16777;BME280;8505;49.456;8.164;2024-03-08T09:36:06;99396.81;;;5.89;72.18
16777;BME280;8505;49.456;8.164;2024-03-08T09:38:34;99393.94;;;5.82;72.70
16777;BME280;8505;49.456;8.164;2024-03-08T09:41:03;99391.41;;;6.08;71.31
16777;BME280;8505;49.456;8.164;2024-03-08T09:43:32;99395.28;;;6.39;71.30
16777;BME280;8505;49.456;8.164;2024-03-08T09:46:03;99384.03;;;6.29;71.37
16777;BME280;8505;49.456;8.164;2024-03-08T09:48:32;99383.97;;;6.21;71.49
16777;BME280;8505;49.456;8.164;2024-03-08T09:51:01;99388.53;;;6.19;71.90
16777;BME280;8505;49.456;8.164;2024-03-08T09:53:29;99386.41;;;5.97;71.65
16777;BME280;8505;49.456;8.164;2024-03-08T09:55:57;99378.91;;;5.75;72.60
16777;BME280;8505;49.456;8.164;2024-03-08T09:58:25;99385.97;;;5.74;73.60
16777;BME280;8505;49.456;8.164;2024-03-08T10:01:06;99383.53;;;6.08;72.33
16777;BME280;8505;49.456;8.164;2024-03-08T10:03:34;99383.91;;;6.13;71.91
16777;BME280;8505;49.456;8.164;2024-03-08T10:06:03;99375.56;;;6.00;72.04
16777;BME280;8505;49.456;8.164;2024-03-08T10:08:32;99376.69;;;6.15;71.89
16777;BME280;8505;49.456;8.164;2024-03-08T10:11:01;99377.44;;;6.07;72.23
16777;BME280;8505;49.456;8.164;2024-03-08T10:13:28;99372.03;;;6.09;72.14
16777;BME280;8505;49.456;8.164;2024-03-08T10:15:56;99373.81;;;6.26;71.45
16777;BME280;8505;49.456;8.164;2024-03-08T10:18:26;99374.13;;;6.23;71.23
16777;BME280;8505;49.456;8.164;2024-03-08T10:21:02;99372.19;;;6.07;71.81
16777;BME280;8505;49.456;8.164;2024-03-08T10:23:31;99368.34;;;6.20;71.76
16777;BME280;8505;49.456;8.164;2024-03-08T10:26:10;99366.50;;;6.38;71.44
16777;BME280;8505;49.456;8.164;2024-03-08T10:28:41;99362.53;;;6.34;70.94
16777;BME280;8505;49.456;8.164;2024-03-08T10:31:09;99367.41;;;6.46;71.03
16777;BME280;8505;49.456;8.164;2024-03-08T10:33:39;99362.69;;;6.32;70.76
16777;BME280;8505;49.456;8.164;2024-03-08T10:36:08;99359.09;;;6.33;71.21
16777;BME280;8505;49.456;8.164;2024-03-08T10:38:38;99359.34;;;6.22;70.99
16777;BME280;8505;49.456;8.164;2024-03-08T10:41:07;99348.34;;;6.27;71.21
16777;BME280;8505;49.456;8.164;2024-03-08T10:46:41;99347.84;;;6.23;71.42
16777;BME280;8505;49.456;8.164;2024-03-08T10:49:17;99343.31;;;6.33;70.77
16777;BME280;8505;49.456;8.164;2024-03-08T10:51:49;99354.50;;;6.35;70.63
16777;BME280;8505;49.456;8.164;2024-03-08T10:54:18;99346.91;;;6.32;70.78
16777;BME280;8505;49.456;8.164;2024-03-08T10:56:48;99343.81;;;6.37;71.06
16777;BME280;8505;49.456;8.164;2024-03-08T10:59:17;99352.28;;;6.23;71.48
16777;BME280;8505;49.456;8.164;2024-03-08T11:01:45;99344.34;;;6.40;70.84
16777;BME280;8505;49.456;8.164;2024-03-08T11:04:15;99345.38;;;6.47;70.24
16777;BME280;8505;49.456;8.164;2024-03-08T11:06:46;99344.22;;;6.50;70.14
16777;BME280;8505;49.456;8.164;2024-03-08T11:09:30;99339.09;;;6.40;70.39
16777;BME280;8505;49.456;8.164;2024-03-08T11:12:20;99335.28;;;6.69;69.18
16777;BME280;8505;49.456;8.164;2024-03-08T11:14:49;99327.06;;;6.64;69.63
16777;BME280;8505;49.456;8.164;2024-03-08T11:17:20;99322.88;;;6.87;69.60
16777;BME280;8505;49.456;8.164;2024-03-08T11:19:50;99327.59;;;7.17;68.38
16777;BME280;8505;49.456;8.164;2024-03-08T11:22:23;99322.00;;;7.12;67.21
16777;BME280;8505;49.456;8.164;2024-03-08T11:24:53;99320.00;;;7.06;67.71
16777;BME280;8505;49.456;8.164;2024-03-08T11:27:28;99315.22;;;7.02;68.59
16777;BME280;8505;49.456;8.164;2024-03-08T11:30:00;99320.41;;;7.27;67.77
16777;BME280;8505;49.456;8.164;2024-03-08T11:32:44;99308.09;;;8.33;63.76
16777;BME280;8505;49.456;8.164;2024-03-08T11:35:20;99302.66;;;8.98;61.82
16777;BME280;8505;49.456;8.164;2024-03-08T11:37:49;99297.66;;;9.34;60.89
16777;BME280;8505;49.456;8.164;2024-03-08T11:40:18;99293.16;;;9.65;59.65
16777;BME280;8505;49.456;8.164;2024-03-08T11:42:48;99290.06;;;9.85;59.04
16777;BME280;8505;49.456;8.164;2024-03-08T11:45:18;99288.25;;;10.00;57.94
16777;BME280;8505;49.456;8.164;2024-03-08T11:47:48;99289.56;;;10.04;57.79
16777;BME280;8505;49.456;8.164;2024-03-08T11:50:18;99272.97;;;10.47;56.42
16777;BME280;8505;49.456;8.164;2024-03-08T11:52:47;99270.03;;;10.72;55.92
16777;BME280;8505;49.456;8.164;2024-03-08T11:55:15;99268.03;;;10.74;56.06
16777;BME280;8505;49.456;8.164;2024-03-08T11:57:47;99273.31;;;10.74;55.98
16777;BME280;8505;49.456;8.164;2024-03-08T12:00:16;99258.38;;;12.02;52.47
16777;BME280;8505;49.456;8.164;2024-03-08T12:03:01;99253.19;;;12.15;52.06
16777;BME280;8505;49.456;8.164;2024-03-08T12:05:30;99251.97;;;11.90;51.85
16777;BME280;8505;49.456;8.164;2024-03-08T12:08:00;99253.09;;;12.36;51.94
16777;BME280;8505;49.456;8.164;2024-03-08T12:10:28;99248.47;;;11.89;52.01
16777;BME280;8505;49.456;8.164;2024-03-08T12:12:57;99254.06;;;11.37;52.99
16777;BME280;8505;49.456;8.164;2024-03-08T12:15:28;99236.53;;;11.57;51.98
16777;BME280;8505;49.456;8.164;2024-03-08T12:17:59;99235.78;;;10.70;54.05
16777;BME280;8505;49.456;8.164;2024-03-08T12:20:30;99236.38;;;11.02;53.82
16777;BME280;8505;49.456;8.164;2024-03-08T12:22:58;99221.13;;;11.67;52.94
16777;BME280;8505;49.456;8.164;2024-03-08T12:25:30;99219.13;;;11.97;51.79
16777;BME280;8505;49.456;8.164;2024-03-08T12:28:07;99222.25;;;11.16;52.87
16777;BME280;8505;49.456;8.164;2024-03-08T12:30:45;99210.72;;;11.66;52.34
16777;BME280;8505;49.456;8.164;2024-03-08T12:33:13;99211.78;;;11.50;51.84
16777;BME280;8505;49.456;8.164;2024-03-08T12:35:50;99212.84;;;12.33;50.46
16777;BME280;8505;49.456;8.164;2024-03-08T12:38:21;99205.25;;;13.18;49.36
16777;BME280;8505;49.456;8.164;2024-03-08T12:40:55;99192.69;;;12.10;51.50
16777;BME280;8505;49.456;8.164;2024-03-08T12:43:24;99190.72;;;12.60;50.26
16777;BME280;8505;49.456;8.164;2024-03-08T12:45:52;99188.19;;;12.39;50.93
16777;BME280;8505;49.456;8.164;2024-03-08T12:48:21;99180.13;;;11.70;51.49
16777;BME280;8505;49.456;8.164;2024-03-08T12:50:50;99170.72;;;12.23;51.16
16777;BME280;8505;49.456;8.164;2024-03-08T12:53:18;99169.69;;;12.59;51.62
16777;BME280;8505;49.456;8.164;2024-03-08T12:55:46;99157.75;;;13.02;49.74
16777;BME280;8505;49.456;8.164;2024-03-08T12:58:14;99160.19;;;13.04;49.30
16777;BME280;8505;49.456;8.164;2024-03-08T13:00:43;99154.13;;;12.55;50.74
16777;BME280;8505;49.456;8.164;2024-03-08T13:03:11;99152.72;;;12.66;49.23
16777;BME280;8505;49.456;8.164;2024-03-08T13:05:39;99133.00;;;12.88;49.66
16777;BME280;8505;49.456;8.164;2024-03-08T13:08:10;99135.28;;;13.11;49.74
16777;BME280;8505;49.456;8.164;2024-03-08T13:10:40;99133.47;;;13.25;49.02
16777;BME280;8505;49.456;8.164;2024-03-08T13:13:11;99130.66;;;12.66;50.41
16777;BME280;8505;49.456;8.164;2024-03-08T13:15:40;99129.59;;;12.53;50.29
16777;BME280;8505;49.456;8.164;2024-03-08T13:18:08;99119.06;;;12.80;49.19
16777;BME280;8505;49.456;8.164;2024-03-08T13:20:37;99111.41;;;13.38;48.44
16777;BME280;8505;49.456;8.164;2024-03-08T13:23:14;99108.75;;;12.03;50.80
16777;BME280;8505;49.456;8.164;2024-03-08T13:25:44;99097.28;;;11.68;51.70
16777;BME280;8505;49.456;8.164;2024-03-08T13:28:14;99100.09;;;12.35;50.82
16777;BME280;8505;49.456;8.164;2024-03-08T13:30:42;99094.50;;;12.58;50.82
16777;BME280;8505;49.456;8.164;2024-03-08T13:33:10;99103.00;;;12.47;51.18